sensor_id;sensor_type;location;lat;lon;timestamp;P1;durP1;ratioP1;P2;durP2;ratioP2
54123;SDS011;55741;53.252;5.788;2023-09-18T00:00:44;88.43;;;42.45;;
54123;SDS011;55741;53.252;5.788;2023-09-18T00:03:12;58.38;;;40.90;;
54123;SDS011;55741;53.252;5.788;2023-09-18T00:05:37;197.02;;;48.63;;
54123;SDS011;55741;53.252;5.788;2023-09-18T00:08:03;133.75;;;47.33;;
54123;SDS011;55741;53.252;5.788;2023-09-18T00:10:29;87.40;;;42.42;;
54123;SDS011;55741;53.252;5.788;2023-09-18T00:13:15;483.88;;;57.67;;
54123;SDS011;55741;53.252;5.788;2023-09-18T00:15:42;81.85;;;38.17;;
54123;SDS011;55741;53.252;5.788;2023-09-18T00:18:09;48.58;;;37.30;;
54123;SDS011;55741;53.252;5.788;2023-09-18T00:20:35;73.20;;;39.17;;
54123;SDS011;55741;53.252;5.788;2023-09-18T00:23:01;122.30;;;34.17;;
54123;SDS011;55741;53.252;5.788;2023-09-18T00:25:47;95.07;;;34.33;;
54123;SDS011;55741;53.252;5.788;2023-09-18T00:28:13;76.22;;;31.77;;
54123;SDS011;55741;53.252;5.788;2023-09-18T00:30:42;191.80;;;37.47;;
54123;SDS011;55741;53.252;5.788;2023-09-18T00:33:11;86.43;;;36.97;;
54123;SDS011;55741;53.252;5.788;2023-09-18T00:35:37;139.30;;;33.78;;
54123;SDS011;55741;53.252;5.788;2023-09-18T00:38:03;97.25;;;34.17;;
54123;SDS011;55741;53.252;5.788;2023-09-18T00:40:29;129.25;;;37.05;;
54123;SDS011;55741;53.252;5.788;2023-09-18T00:42:55;111.25;;;40.13;;
54123;SDS011;55741;53.252;5.788;2023-09-18T00:45:21;77.40;;;36.88;;
54123;SDS011;55741;53.252;5.788;2023-09-18T00:47:46;225.90;;;47.15;;
54123;SDS011;55741;53.252;5.788;2023-09-18T00:50:12;248.25;;;47.78;;
54123;SDS011;55741;53.252;5.788;2023-09-18T00:52:39;59.85;;;35.00;;
54123;SDS011;55741;53.252;5.788;2023-09-18T00:55:06;153.07;;;44.17;;
54123;SDS011;55741;53.252;5.788;2023-09-18T00:57:33;155.95;;;44.75;;
54123;SDS011;55741;53.252;5.788;2023-09-18T00:59:59;205.50;;;50.38;;
54123;SDS011;55741;53.252;5.788;2023-09-18T01:02:25;231.23;;;45.00;;
54123;SDS011;55741;53.252;5.788;2023-09-18T01:04:53;73.85;;;34.55;;
54123;SDS011;55741;53.252;5.788;2023-09-18T01:07:19;75.85;;;34.97;;
54123;SDS011;55741;53.252;5.788;2023-09-18T01:09:45;80.65;;;38.33;;
54123;SDS011;55741;53.252;5.788;2023-09-18T01:12:13;129.82;;;41.55;;
54123;SDS011;55741;53.252;5.788;2023-09-18T01:14:50;149.35;;;38.47;;
54123;SDS011;55741;53.252;5.788;2023-09-18T01:17:24;58.70;;;38.30;;
54123;SDS011;55741;53.252;5.788;2023-09-18T01:19:51;103.28;;;39.70;;
54123;SDS011;55741;53.252;5.788;2023-09-18T01:22:17;103.97;;;42.80;;
54123;SDS011;55741;53.252;5.788;2023-09-18T01:24:44;54.35;;;33.95;;
54123;SDS011;55741;53.252;5.788;2023-09-18T01:27:13;127.93;;;38.50;;
54123;SDS011;55741;53.252;5.788;2023-09-18T01:29:42;85.43;;;37.47;;
54123;SDS011;55741;53.252;5.788;2023-09-18T01:32:09;107.00;;;40.22;;
54123;SDS011;55741;53.252;5.788;2023-09-18T01:34:38;106.50;;;39.40;;
54123;SDS011;55741;53.252;5.788;2023-09-18T01:37:09;128.88;;;44.40;;
54123;SDS011;55741;53.252;5.788;2023-09-18T01:39:36;56.25;;;33.90;;
54123;SDS011;55741;53.252;5.788;2023-09-18T01:42:04;76.60;;;41.35;;
54123;SDS011;55741;53.252;5.788;2023-09-18T01:44:31;70.63;;;34.58;;
54123;SDS011;55741;53.252;5.788;2023-09-18T01:46:59;184.68;;;40.45;;
54123;SDS011;55741;53.252;5.788;2023-09-18T01:49:47;98.22;;;34.50;;
54123;SDS011;55741;53.252;5.788;2023-09-18T01:52:13;58.42;;;33.03;;
54123;SDS011;55741;53.252;5.788;2023-09-18T01:54:39;67.05;;;39.47;;
54123;SDS011;55741;53.252;5.788;2023-09-18T01:57:05;53.83;;;33.83;;
54123;SDS011;55741;53.252;5.788;2023-09-18T01:59:32;75.47;;;38.55;;
54123;SDS011;55741;53.252;5.788;2023-09-18T02:01:59;37.08;;;33.28;;
54123;SDS011;55741;53.252;5.788;2023-09-18T02:04:28;93.65;;;40.05;;
54123;SDS011;55741;53.252;5.788;2023-09-18T02:06:56;131.18;;;40.38;;
54123;SDS011;55741;53.252;5.788;2023-09-18T02:09:23;59.58;;;38.67;;
54123;SDS011;55741;53.252;5.788;2023-09-18T02:11:48;49.58;;;37.50;;
54123;SDS011;55741;53.252;5.788;2023-09-18T02:14:14;73.82;;;42.80;;
54123;SDS011;55741;53.252;5.788;2023-09-18T02:16:41;45.08;;;35.38;;
54123;SDS011;55741;53.252;5.788;2023-09-18T02:19:08;52.00;;;38.60;;
54123;SDS011;55741;53.252;5.788;2023-09-18T02:21:35;54.33;;;38.95;;
54123;SDS011;55741;53.252;5.788;2023-09-18T02:24:01;59.95;;;41.30;;
54123;SDS011;55741;53.252;5.788;2023-09-18T02:26:28;60.83;;;41.00;;
54123;SDS011;55741;53.252;5.788;2023-09-18T02:28:54;51.72;;;38.45;;
54123;SDS011;55741;53.252;5.788;2023-09-18T02:31:22;50.78;;;37.92;;
54123;SDS011;55741;53.252;5.788;2023-09-18T02:33:48;51.67;;;39.10;;
54123;SDS011;55741;53.252;5.788;2023-09-18T02:36:14;42.88;;;36.20;;
54123;SDS011;55741;53.252;5.788;2023-09-18T02:38:40;45.75;;;37.17;;
54123;SDS011;55741;53.252;5.788;2023-09-18T02:41:06;45.88;;;37.53;;
54123;SDS011;55741;53.252;5.788;2023-09-18T02:43:32;48.50;;;38.63;;
54123;SDS011;55741;53.252;5.788;2023-09-18T02:45:58;55.95;;;43.30;;
54123;SDS011;55741;53.252;5.788;2023-09-18T02:48:24;47.85;;;39.47;;
54123;SDS011;55741;53.252;5.788;2023-09-18T02:50:50;46.85;;;38.40;;
54123;SDS011;55741;53.252;5.788;2023-09-18T02:53:17;49.83;;;38.45;;
54123;SDS011;55741;53.252;5.788;2023-09-18T02:55:46;46.78;;;38.28;;
54123;SDS011;55741;53.252;5.788;2023-09-18T02:58:13;49.38;;;38.35;;
54123;SDS011;55741;53.252;5.788;2023-09-18T03:00:43;46.58;;;38.13;;
54123;SDS011;55741;53.252;5.788;2023-09-18T03:03:09;47.15;;;38.05;;
54123;SDS011;55741;53.252;5.788;2023-09-18T03:06:00;46.10;;;36.55;;
54123;SDS011;55741;53.252;5.788;2023-09-18T03:08:31;43.55;;;35.08;;
54123;SDS011;55741;53.252;5.788;2023-09-18T03:10:57;46.40;;;35.70;;
54123;SDS011;55741;53.252;5.788;2023-09-18T03:13:25;42.42;;;35.95;;
54123;SDS011;55741;53.252;5.788;2023-09-18T03:15:56;40.33;;;34.70;;
54123;SDS011;55741;53.252;5.788;2023-09-18T03:18:21;37.13;;;32.88;;
54123;SDS011;55741;53.252;5.788;2023-09-18T03:20:47;39.72;;;35.15;;
54123;SDS011;55741;53.252;5.788;2023-09-18T03:23:13;41.70;;;33.03;;
54123;SDS011;55741;53.252;5.788;2023-09-18T03:25:39;42.88;;;33.40;;
54123;SDS011;55741;53.252;5.788;2023-09-18T03:30:51;36.45;;;32.42;;
54123;SDS011;55741;53.252;5.788;2023-09-18T03:33:17;41.05;;;32.70;;
54123;SDS011;55741;53.252;5.788;2023-09-18T03:35:49;37.70;;;32.13;;
54123;SDS011;55741;53.252;5.788;2023-09-18T03:38:16;37.60;;;32.78;;
54123;SDS011;55741;53.252;5.788;2023-09-18T03:40:42;39.95;;;34.80;;
54123;SDS011;55741;53.252;5.788;2023-09-18T03:43:09;38.15;;;34.05;;
54123;SDS011;55741;53.252;5.788;2023-09-18T03:45:35;37.65;;;33.42;;
54123;SDS011;55741;53.252;5.788;2023-09-18T03:48:01;37.25;;;33.22;;
54123;SDS011;55741;53.252;5.788;2023-09-18T03:50:27;37.22;;;33.42;;
54123;SDS011;55741;53.252;5.788;2023-09-18T03:53:13;40.70;;;34.28;;
54123;SDS011;55741;53.252;5.788;2023-09-18T03:55:39;39.38;;;35.10;;
54123;SDS011;55741;53.252;5.788;2023-09-18T03:58:04;38.63;;;34.58;;
54123;SDS011;55741;53.252;5.788;2023-09-18T04:00:30;38.00;;;33.28;;
54123;SDS011;55741;53.252;5.788;2023-09-18T04:03:16;37.15;;;32.70;;
54123;SDS011;55741;53.252;5.788;2023-09-18T04:05:42;41.42;;;33.67;;
54123;SDS011;55741;53.252;5.788;2023-09-18T04:08:08;42.65;;;34.28;;
54123;SDS011;55741;53.252;5.788;2023-09-18T04:10:35;41.05;;;33.45;;
54123;SDS011;55741;53.252;5.788;2023-09-18T04:13:01;40.28;;;33.70;;
54123;SDS011;55741;53.252;5.788;2023-09-18T04:15:29;39.60;;;33.22;;
54123;SDS011;55741;53.252;5.788;2023-09-18T04:17:56;35.72;;;31.80;;
54123;SDS011;55741;53.252;5.788;2023-09-18T04:20:22;37.83;;;31.63;;
54123;SDS011;55741;53.252;5.788;2023-09-18T04:23:16;34.97;;;31.27;;
54123;SDS011;55741;53.252;5.788;2023-09-18T04:26:02;36.95;;;32.13;;
54123;SDS011;55741;53.252;5.788;2023-09-18T04:31:14;38.83;;;33.35;;
54123;SDS011;55741;53.252;5.788;2023-09-18T04:33:39;39.35;;;34.72;;
54123;SDS011;55741;53.252;5.788;2023-09-18T04:36:05;42.83;;;33.92;;
54123;SDS011;55741;53.252;5.788;2023-09-18T04:38:31;39.80;;;34.65;;
54123;SDS011;55741;53.252;5.788;2023-09-18T04:40:58;40.42;;;35.97;;
54123;SDS011;55741;53.252;5.788;2023-09-18T04:43:24;37.80;;;33.63;;
54123;SDS011;55741;53.252;5.788;2023-09-18T04:45:51;37.58;;;33.10;;
54123;SDS011;55741;53.252;5.788;2023-09-18T04:48:16;39.20;;;33.22;;
54123;SDS011;55741;53.252;5.788;2023-09-18T04:50:45;40.05;;;34.55;;
54123;SDS011;55741;53.252;5.788;2023-09-18T04:53:12;39.55;;;33.60;;
54123;SDS011;55741;53.252;5.788;2023-09-18T04:55:38;36.72;;;32.58;;
54123;SDS011;55741;53.252;5.788;2023-09-18T04:58:04;39.08;;;33.00;;
54123;SDS011;55741;53.252;5.788;2023-09-18T05:00:30;34.88;;;31.15;;
54123;SDS011;55741;53.252;5.788;2023-09-18T05:02:59;38.20;;;32.83;;
54123;SDS011;55741;53.252;5.788;2023-09-18T05:05:27;34.97;;;31.30;;
54123;SDS011;55741;53.252;5.788;2023-09-18T05:07:53;37.05;;;31.92;;
54123;SDS011;55741;53.252;5.788;2023-09-18T05:10:19;40.05;;;33.33;;
54123;SDS011;55741;53.252;5.788;2023-09-18T05:12:48;36.75;;;30.98;;
54123;SDS011;55741;53.252;5.788;2023-09-18T05:15:15;36.65;;;31.17;;
54123;SDS011;55741;53.252;5.788;2023-09-18T05:20:17;34.53;;;30.80;;
54123;SDS011;55741;53.252;5.788;2023-09-18T05:22:43;39.00;;;28.85;;
54123;SDS011;55741;53.252;5.788;2023-09-18T05:25:10;41.25;;;29.48;;
54123;SDS011;55741;53.252;5.788;2023-09-18T05:27:36;32.67;;;28.35;;
54123;SDS011;55741;53.252;5.788;2023-09-18T05:30:12;34.05;;;29.25;;
54123;SDS011;55741;53.252;5.788;2023-09-18T05:32:48;33.78;;;26.35;;
54123;SDS011;55741;53.252;5.788;2023-09-18T05:35:14;30.13;;;27.02;;
54123;SDS011;55741;53.252;5.788;2023-09-18T05:37:42;32.78;;;26.85;;
54123;SDS011;55741;53.252;5.788;2023-09-18T05:40:10;34.95;;;26.60;;
54123;SDS011;55741;53.252;5.788;2023-09-18T05:42:40;28.73;;;25.73;;
54123;SDS011;55741;53.252;5.788;2023-09-18T05:45:11;31.63;;;25.30;;
54123;SDS011;55741;53.252;5.788;2023-09-18T05:47:38;33.08;;;25.35;;
54123;SDS011;55741;53.252;5.788;2023-09-18T05:50:05;33.35;;;26.08;;
54123;SDS011;55741;53.252;5.788;2023-09-18T05:52:32;31.77;;;26.85;;
54123;SDS011;55741;53.252;5.788;2023-09-18T05:54:59;28.10;;;25.17;;
54123;SDS011;55741;53.252;5.788;2023-09-18T05:57:25;32.33;;;25.33;;
54123;SDS011;55741;53.252;5.788;2023-09-18T05:59:54;33.85;;;25.27;;
54123;SDS011;55741;53.252;5.788;2023-09-18T06:02:20;29.27;;;24.65;;
54123;SDS011;55741;53.252;5.788;2023-09-18T06:04:46;31.15;;;24.75;;
54123;SDS011;55741;53.252;5.788;2023-09-18T06:07:12;31.88;;;24.95;;
54123;SDS011;55741;53.252;5.788;2023-09-18T06:09:38;29.23;;;24.85;;
54123;SDS011;55741;53.252;5.788;2023-09-18T06:12:05;32.63;;;26.50;;
54123;SDS011;55741;53.252;5.788;2023-09-18T06:14:32;31.00;;;26.77;;
54123;SDS011;55741;53.252;5.788;2023-09-18T06:17:03;32.30;;;25.42;;
54123;SDS011;55741;53.252;5.788;2023-09-18T06:19:30;31.65;;;26.35;;
54123;SDS011;55741;53.252;5.788;2023-09-18T06:21:56;33.58;;;25.92;;
54123;SDS011;55741;53.252;5.788;2023-09-18T06:24:22;30.95;;;24.67;;
54123;SDS011;55741;53.252;5.788;2023-09-18T06:26:47;28.95;;;24.67;;
54123;SDS011;55741;53.252;5.788;2023-09-18T06:29:13;30.05;;;23.60;;
54123;SDS011;55741;53.252;5.788;2023-09-18T06:31:39;26.00;;;21.95;;
54123;SDS011;55741;53.252;5.788;2023-09-18T06:34:06;25.50;;;22.48;;
54123;SDS011;55741;53.252;5.788;2023-09-18T06:36:31;27.67;;;22.42;;
54123;SDS011;55741;53.252;5.788;2023-09-18T06:38:57;26.65;;;20.48;;
54123;SDS011;55741;53.252;5.788;2023-09-18T06:41:23;25.25;;;21.45;;
54123;SDS011;55741;53.252;5.788;2023-09-18T06:43:49;29.13;;;22.33;;
54123;SDS011;55741;53.252;5.788;2023-09-18T06:46:15;37.95;;;21.75;;
54123;SDS011;55741;53.252;5.788;2023-09-18T06:48:41;23.98;;;19.15;;
54123;SDS011;55741;53.252;5.788;2023-09-18T06:51:14;18.33;;;15.82;;
54123;SDS011;55741;53.252;5.788;2023-09-18T06:53:42;17.50;;;12.70;;
54123;SDS011;55741;53.252;5.788;2023-09-18T06:56:08;17.67;;;11.38;;
54123;SDS011;55741;53.252;5.788;2023-09-18T06:58:54;10.82;;;9.40;;
54123;SDS011;55741;53.252;5.788;2023-09-18T07:01:21;11.60;;;8.15;;
54123;SDS011;55741;53.252;5.788;2023-09-18T07:03:47;13.27;;;9.18;;
54123;SDS011;55741;53.252;5.788;2023-09-18T07:06:16;12.82;;;8.75;;
54123;SDS011;55741;53.252;5.788;2023-09-18T07:08:45;11.63;;;7.82;;
54123;SDS011;55741;53.252;5.788;2023-09-18T07:11:12;14.55;;;7.53;;
54123;SDS011;55741;53.252;5.788;2023-09-18T07:13:38;18.17;;;7.70;;
54123;SDS011;55741;53.252;5.788;2023-09-18T07:16:05;9.23;;;6.65;;
54123;SDS011;55741;53.252;5.788;2023-09-18T07:18:31;10.48;;;6.18;;
54123;SDS011;55741;53.252;5.788;2023-09-18T07:20:58;8.82;;;5.95;;
54123;SDS011;55741;53.252;5.788;2023-09-18T07:23:24;19.08;;;7.47;;
54123;SDS011;55741;53.252;5.788;2023-09-18T07:25:49;10.25;;;6.40;;
54123;SDS011;55741;53.252;5.788;2023-09-18T07:28:15;12.50;;;6.45;;
54123;SDS011;55741;53.252;5.788;2023-09-18T07:30:43;14.52;;;6.90;;
54123;SDS011;55741;53.252;5.788;2023-09-18T07:33:09;17.33;;;8.20;;
54123;SDS011;55741;53.252;5.788;2023-09-18T07:35:35;10.10;;;6.72;;
54123;SDS011;55741;53.252;5.788;2023-09-18T07:38:02;9.85;;;7.38;;
54123;SDS011;55741;53.252;5.788;2023-09-18T07:40:28;12.57;;;7.80;;
54123;SDS011;55741;53.252;5.788;2023-09-18T07:42:53;17.50;;;9.07;;
54123;SDS011;55741;53.252;5.788;2023-09-18T07:45:39;10.10;;;7.20;;
54123;SDS011;55741;53.252;5.788;2023-09-18T07:48:25;13.07;;;7.78;;
54123;SDS011;55741;53.252;5.788;2023-09-18T07:50:51;14.15;;;8.15;;
54123;SDS011;55741;53.252;5.788;2023-09-18T07:53:17;11.63;;;8.30;;
54123;SDS011;55741;53.252;5.788;2023-09-18T07:55:43;18.50;;;8.55;;
54123;SDS011;55741;53.252;5.788;2023-09-18T07:58:29;12.02;;;9.05;;
54123;SDS011;55741;53.252;5.788;2023-09-18T08:00:55;11.15;;;9.05;;
54123;SDS011;55741;53.252;5.788;2023-09-18T08:03:23;15.65;;;10.00;;
54123;SDS011;55741;53.252;5.788;2023-09-18T08:05:50;12.50;;;10.32;;
54123;SDS011;55741;53.252;5.788;2023-09-18T08:08:19;17.63;;;10.63;;
54123;SDS011;55741;53.252;5.788;2023-09-18T08:10:47;17.75;;;11.35;;
54123;SDS011;55741;53.252;5.788;2023-09-18T08:13:13;13.80;;;11.52;;
54123;SDS011;55741;53.252;5.788;2023-09-18T08:15:39;18.15;;;11.95;;
54123;SDS011;55741;53.252;5.788;2023-09-18T08:18:26;15.45;;;11.45;;
54123;SDS011;55741;53.252;5.788;2023-09-18T08:20:52;16.85;;;12.35;;
54123;SDS011;55741;53.252;5.788;2023-09-18T08:23:19;21.52;;;13.25;;
54123;SDS011;55741;53.252;5.788;2023-09-18T08:25:45;20.50;;;13.10;;
54123;SDS011;55741;53.252;5.788;2023-09-18T08:28:12;15.60;;;11.88;;
54123;SDS011;55741;53.252;5.788;2023-09-18T08:30:40;22.13;;;14.65;;
54123;SDS011;55741;53.252;5.788;2023-09-18T08:33:09;17.42;;;11.68;;
54123;SDS011;55741;53.252;5.788;2023-09-18T08:35:36;15.30;;;10.98;;
54123;SDS011;55741;53.252;5.788;2023-09-18T08:38:02;15.90;;;11.63;;
54123;SDS011;55741;53.252;5.788;2023-09-18T08:40:29;14.68;;;10.25;;
54123;SDS011;55741;53.252;5.788;2023-09-18T08:42:55;17.92;;;11.40;;
54123;SDS011;55741;53.252;5.788;2023-09-18T08:45:23;18.73;;;11.02;;
54123;SDS011;55741;53.252;5.788;2023-09-18T08:47:58;15.45;;;10.85;;
54123;SDS011;55741;53.252;5.788;2023-09-18T08:50:25;18.02;;;11.80;;
54123;SDS011;55741;53.252;5.788;2023-09-18T08:52:52;15.75;;;11.90;;
54123;SDS011;55741;53.252;5.788;2023-09-18T08:55:19;12.93;;;9.98;;
54123;SDS011;55741;53.252;5.788;2023-09-18T08:57:46;17.60;;;10.77;;
54123;SDS011;55741;53.252;5.788;2023-09-18T09:00:12;16.65;;;11.02;;
54123;SDS011;55741;53.252;5.788;2023-09-18T09:02:43;12.60;;;9.20;;
54123;SDS011;55741;53.252;5.788;2023-09-18T09:05:09;13.63;;;9.57;;
54123;SDS011;55741;53.252;5.788;2023-09-18T09:07:35;14.15;;;10.50;;
54123;SDS011;55741;53.252;5.788;2023-09-18T09:10:01;18.77;;;10.35;;
54123;SDS011;55741;53.252;5.788;2023-09-18T09:15:23;21.33;;;11.27;;
54123;SDS011;55741;53.252;5.788;2023-09-18T09:18:11;18.73;;;10.65;;
54123;SDS011;55741;53.252;5.788;2023-09-18T09:20:40;18.92;;;11.75;;
54123;SDS011;55741;53.252;5.788;2023-09-18T09:23:07;14.88;;;11.02;;
54123;SDS011;55741;53.252;5.788;2023-09-18T09:25:34;20.63;;;13.45;;
54123;SDS011;55741;53.252;5.788;2023-09-18T09:28:01;16.63;;;12.00;;
54123;SDS011;55741;53.252;5.788;2023-09-18T09:30:30;17.33;;;12.23;;
54123;SDS011;55741;53.252;5.788;2023-09-18T09:32:58;16.13;;;13.55;;
54123;SDS011;55741;53.252;5.788;2023-09-18T09:35:28;18.17;;;13.13;;
54123;SDS011;55741;53.252;5.788;2023-09-18T09:38:06;18.33;;;14.57;;
54123;SDS011;55741;53.252;5.788;2023-09-18T09:40:34;19.48;;;14.35;;
54123;SDS011;55741;53.252;5.788;2023-09-18T09:43:03;15.73;;;14.02;;
54123;SDS011;55741;53.252;5.788;2023-09-18T09:45:30;16.95;;;15.18;;
54123;SDS011;55741;53.252;5.788;2023-09-18T09:48:01;20.48;;;15.98;;
54123;SDS011;55741;53.252;5.788;2023-09-18T09:50:29;17.27;;;14.57;;
54123;SDS011;55741;53.252;5.788;2023-09-18T09:52:57;17.90;;;13.15;;
54123;SDS011;55741;53.252;5.788;2023-09-18T09:55:25;17.20;;;14.18;;
54123;SDS011;55741;53.252;5.788;2023-09-18T09:57:55;17.67;;;14.45;;
54123;SDS011;55741;53.252;5.788;2023-09-18T10:00:29;16.42;;;13.52;;
54123;SDS011;55741;53.252;5.788;2023-09-18T10:03:08;15.93;;;13.60;;
54123;SDS011;55741;53.252;5.788;2023-09-18T10:05:37;15.60;;;14.07;;
54123;SDS011;55741;53.252;5.788;2023-09-18T10:08:23;15.90;;;13.77;;
54123;SDS011;55741;53.252;5.788;2023-09-18T10:11:01;15.55;;;13.38;;
54123;SDS011;55741;53.252;5.788;2023-09-18T10:16:19;17.45;;;13.88;;
54123;SDS011;55741;53.252;5.788;2023-09-18T10:19:17;19.60;;;15.00;;
54123;SDS011;55741;53.252;5.788;2023-09-18T10:22:11;16.65;;;15.00;;
54123;SDS011;55741;53.252;5.788;2023-09-18T10:24:59;18.60;;;15.32;;
54123;SDS011;55741;53.252;5.788;2023-09-18T10:27:38;18.23;;;14.30;;
54123;SDS011;55741;53.252;5.788;2023-09-18T10:30:06;17.20;;;13.32;;
54123;SDS011;55741;53.252;5.788;2023-09-18T10:32:45;15.73;;;14.13;;
54123;SDS011;55741;53.252;5.788;2023-09-18T10:35:11;15.52;;;14.02;;
54123;SDS011;55741;53.252;5.788;2023-09-18T10:37:38;14.05;;;12.73;;
54123;SDS011;55741;53.252;5.788;2023-09-18T10:40:06;16.02;;;12.60;;
54123;SDS011;55741;53.252;5.788;2023-09-18T10:42:34;14.98;;;13.48;;
54123;SDS011;55741;53.252;5.788;2023-09-18T10:45:03;15.02;;;13.52;;
54123;SDS011;55741;53.252;5.788;2023-09-18T10:47:30;14.98;;;13.35;;
54123;SDS011;55741;53.252;5.788;2023-09-18T10:50:24;12.60;;;11.32;;
54123;SDS011;55741;53.252;5.788;2023-09-18T10:52:51;11.77;;;9.57;;
54123;SDS011;55741;53.252;5.788;2023-09-18T10:55:17;9.20;;;6.63;;
54123;SDS011;55741;53.252;5.788;2023-09-18T10:57:53;9.27;;;5.47;;
54123;SDS011;55741;53.252;5.788;2023-09-18T11:00:21;7.40;;;4.88;;
54123;SDS011;55741;53.252;5.788;2023-09-18T11:03:11;8.77;;;5.55;;
54123;SDS011;55741;53.252;5.788;2023-09-18T11:05:45;9.35;;;5.25;;
54123;SDS011;55741;53.252;5.788;2023-09-18T11:11:00;9.18;;;5.32;;
54123;SDS011;55741;53.252;5.788;2023-09-18T11:14:03;8.70;;;4.60;;
54123;SDS011;55741;53.252;5.788;2023-09-18T11:21:25;8.65;;;5.03;;
54123;SDS011;55741;53.252;5.788;2023-09-18T11:23:59;8.27;;;3.35;;
54123;SDS011;55741;53.252;5.788;2023-09-18T11:26:29;9.95;;;4.43;;
54123;SDS011;55741;53.252;5.788;2023-09-18T11:29:39;7.55;;;4.32;;
54123;SDS011;55741;53.252;5.788;2023-09-18T11:34:22;13.15;;;4.70;;
54123;SDS011;55741;53.252;5.788;2023-09-18T11:36:51;7.07;;;3.65;;
54123;SDS011;55741;53.252;5.788;2023-09-18T11:42:09;7.30;;;3.97;;
54123;SDS011;55741;53.252;5.788;2023-09-18T11:44:36;9.13;;;4.68;;
54123;SDS011;55741;53.252;5.788;2023-09-18T11:47:16;11.00;;;4.93;;
54123;SDS011;55741;53.252;5.788;2023-09-18T11:49:49;7.28;;;4.70;;
54123;SDS011;55741;53.252;5.788;2023-09-18T11:52:26;9.88;;;5.00;;
54123;SDS011;55741;53.252;5.788;2023-09-18T11:54:55;12.02;;;5.15;;
54123;SDS011;55741;53.252;5.788;2023-09-18T11:57:23;11.60;;;5.15;;
54123;SDS011;55741;53.252;5.788;2023-09-18T11:59:50;8.98;;;4.45;;
54123;SDS011;55741;53.252;5.788;2023-09-18T12:02:26;10.40;;;4.47;;
54123;SDS011;55741;53.252;5.788;2023-09-18T12:05:16;9.38;;;5.30;;
54123;SDS011;55741;53.252;5.788;2023-09-18T12:07:44;13.57;;;4.75;;
54123;SDS011;55741;53.252;5.788;2023-09-18T12:10:31;9.65;;;4.55;;
54123;SDS011;55741;53.252;5.788;2023-09-18T12:12:57;11.45;;;5.07;;
54123;SDS011;55741;53.252;5.788;2023-09-18T12:15:23;10.18;;;4.82;;
54123;SDS011;55741;53.252;5.788;2023-09-18T12:17:54;8.95;;;5.15;;
54123;SDS011;55741;53.252;5.788;2023-09-18T12:20:48;9.55;;;4.90;;
54123;SDS011;55741;53.252;5.788;2023-09-18T12:23:15;13.20;;;6.20;;
54123;SDS011;55741;53.252;5.788;2023-09-18T12:25:42;8.27;;;5.72;;
54123;SDS011;55741;53.252;5.788;2023-09-18T12:28:10;13.65;;;6.00;;
54123;SDS011;55741;53.252;5.788;2023-09-18T12:30:39;9.75;;;6.18;;
54123;SDS011;55741;53.252;5.788;2023-09-18T12:33:05;9.85;;;6.72;;
54123;SDS011;55741;53.252;5.788;2023-09-18T12:35:31;8.75;;;5.40;;
54123;SDS011;55741;53.252;5.788;2023-09-18T12:37:58;9.77;;;5.65;;
54123;SDS011;55741;53.252;5.788;2023-09-18T12:40:28;10.93;;;6.18;;
54123;SDS011;55741;53.252;5.788;2023-09-18T12:42:58;12.43;;;6.32;;
54123;SDS011;55741;53.252;5.788;2023-09-18T12:45:28;10.32;;;5.90;;
54123;SDS011;55741;53.252;5.788;2023-09-18T12:47:55;9.25;;;5.72;;
54123;SDS011;55741;53.252;5.788;2023-09-18T12:50:22;8.88;;;6.07;;
54123;SDS011;55741;53.252;5.788;2023-09-18T12:52:49;13.05;;;5.85;;
54123;SDS011;55741;53.252;5.788;2023-09-18T12:55:24;7.03;;;4.85;;
54123;SDS011;55741;53.252;5.788;2023-09-18T12:57:52;10.93;;;4.93;;
54123;SDS011;55741;53.252;5.788;2023-09-18T13:00:19;8.93;;;5.10;;
54123;SDS011;55741;53.252;5.788;2023-09-18T13:02:51;8.35;;;5.15;;
54123;SDS011;55741;53.252;5.788;2023-09-18T13:05:20;8.75;;;4.82;;
54123;SDS011;55741;53.252;5.788;2023-09-18T13:07:50;9.43;;;6.47;;
54123;SDS011;55741;53.252;5.788;2023-09-18T13:10:18;10.98;;;6.20;;
54123;SDS011;55741;53.252;5.788;2023-09-18T13:12:51;8.48;;;5.13;;
54123;SDS011;55741;53.252;5.788;2023-09-18T13:15:28;8.68;;;5.50;;
54123;SDS011;55741;53.252;5.788;2023-09-18T13:17:56;7.30;;;5.22;;
54123;SDS011;55741;53.252;5.788;2023-09-18T13:20:25;7.63;;;5.47;;
54123;SDS011;55741;53.252;5.788;2023-09-18T13:22:57;8.07;;;6.00;;
54123;SDS011;55741;53.252;5.788;2023-09-18T13:25:48;8.98;;;5.60;;
54123;SDS011;55741;53.252;5.788;2023-09-18T13:28:14;8.15;;;5.90;;
54123;SDS011;55741;53.252;5.788;2023-09-18T13:30:43;7.47;;;6.60;;
54123;SDS011;55741;53.252;5.788;2023-09-18T13:35:36;9.93;;;7.75;;
54123;SDS011;55741;53.252;5.788;2023-09-18T13:38:04;11.18;;;7.65;;
54123;SDS011;55741;53.252;5.788;2023-09-18T13:40:31;8.50;;;7.68;;
54123;SDS011;55741;53.252;5.788;2023-09-18T13:43:01;8.38;;;5.90;;
54123;SDS011;55741;53.252;5.788;2023-09-18T13:45:29;9.10;;;6.32;;
54123;SDS011;55741;53.252;5.788;2023-09-18T13:47:56;10.48;;;6.85;;
54123;SDS011;55741;53.252;5.788;2023-09-18T13:50:22;8.00;;;6.32;;
54123;SDS011;55741;53.252;5.788;2023-09-18T13:52:48;10.40;;;5.93;;
54123;SDS011;55741;53.252;5.788;2023-09-18T13:55:13;8.15;;;4.25;;
54123;SDS011;55741;53.252;5.788;2023-09-18T13:57:39;8.15;;;3.72;;
54123;SDS011;55741;53.252;5.788;2023-09-18T14:00:06;4.30;;;3.08;;
54123;SDS011;55741;53.252;5.788;2023-09-18T14:02:57;6.68;;;2.85;;
54123;SDS011;55741;53.252;5.788;2023-09-18T14:05:23;8.05;;;3.17;;
54123;SDS011;55741;53.252;5.788;2023-09-18T14:07:49;8.18;;;3.65;;
54123;SDS011;55741;53.252;5.788;2023-09-18T14:10:15;6.38;;;3.28;;
54123;SDS011;55741;53.252;5.788;2023-09-18T14:12:43;4.95;;;3.13;;
54123;SDS011;55741;53.252;5.788;2023-09-18T14:15:09;5.47;;;3.50;;
54123;SDS011;55741;53.252;5.788;2023-09-18T14:17:36;6.20;;;3.30;;
54123;SDS011;55741;53.252;5.788;2023-09-18T14:20:03;5.57;;;3.67;;
54123;SDS011;55741;53.252;5.788;2023-09-18T14:22:33;6.72;;;4.75;;
54123;SDS011;55741;53.252;5.788;2023-09-18T14:25:00;6.72;;;6.03;;
54123;SDS011;55741;53.252;5.788;2023-09-18T14:27:29;6.97;;;4.32;;
54123;SDS011;55741;53.252;5.788;2023-09-18T14:29:55;5.30;;;3.65;;
54123;SDS011;55741;53.252;5.788;2023-09-18T14:32:22;7.40;;;4.00;;
54123;SDS011;55741;53.252;5.788;2023-09-18T14:34:47;4.80;;;3.10;;
54123;SDS011;55741;53.252;5.788;2023-09-18T14:37:13;6.10;;;3.13;;
54123;SDS011;55741;53.252;5.788;2023-09-18T14:39:39;6.78;;;3.92;;
54123;SDS011;55741;53.252;5.788;2023-09-18T14:42:05;4.57;;;3.63;;
54123;SDS011;55741;53.252;5.788;2023-09-18T14:44:31;5.70;;;3.65;;
54123;SDS011;55741;53.252;5.788;2023-09-18T14:46:58;10.38;;;3.20;;
54123;SDS011;55741;53.252;5.788;2023-09-18T14:49:25;5.13;;;3.28;;
54123;SDS011;55741;53.252;5.788;2023-09-18T14:51:53;5.47;;;2.83;;
54123;SDS011;55741;53.252;5.788;2023-09-18T14:54:19;4.85;;;3.00;;
54123;SDS011;55741;53.252;5.788;2023-09-18T14:56:45;5.47;;;3.03;;
54123;SDS011;55741;53.252;5.788;2023-09-18T14:59:12;6.13;;;3.28;;
54123;SDS011;55741;53.252;5.788;2023-09-18T15:01:38;5.25;;;3.80;;
54123;SDS011;55741;53.252;5.788;2023-09-18T15:04:04;5.20;;;4.13;;
54123;SDS011;55741;53.252;5.788;2023-09-18T15:06:30;6.63;;;4.38;;
54123;SDS011;55741;53.252;5.788;2023-09-18T15:08:56;5.03;;;4.07;;